Time;durP1;ratioP1;P1;durP2;ratioP2;P2;SDS_P1;SDS_P2;PMS_P1;PMS_P2;Temp;Humidity;BMP_temperature;BMP_pressure;BME280_temperature;BME280_humidity;BME280_pressure;Samples;Min_cycle;Max_cycle;Signal;HPM_P1;HPM_P2
2022/04/10 00:00:56;;;;;;;1.30;1.20;;;19.90;49.00;;;;;;5028124;28;20215;-72
2022/04/10 00:03:23;;;;;;;1.30;1.20;;;19.90;49.00;;;;;;5012097;28;20188;-72
2022/04/10 00:05:50;;;;;;;1.75;1.65;;;19.90;48.90;;;;;;4996610;28;20188;-71
2022/04/10 00:08:16;;;;;;;1.95;1.60;;;19.90;49.00;;;;;;5016180;28;20179;-72
2022/04/10 00:10:42;;;;;;;1.70;1.50;;;19.90;49.00;;;;;;5030340;28;20207;-72
2022/04/10 00:13:08;;;;;;;1.20;1.10;;;19.90;48.90;;;;;;5011753;28;20199;-72
2022/04/10 00:15:35;;;;;;;1.63;1.52;;;19.90;49.00;;;;;;5018912;28;20188;-72
2022/04/10 00:18:01;;;;;;;1.50;1.40;;;19.90;49.00;;;;;;5022458;28;20192;-73
2022/04/10 00:20:27;;;;;;;1.52;1.40;;;19.90;49.00;;;;;;5030956;28;20251;-73
2022/04/10 00:22:53;;;;;;;2.10;1.52;;;19.90;48.90;;;;;;5027161;28;20219;-72
2022/04/10 00:25:20;;;;;;;1.48;1.38;;;19.90;48.90;;;;;;5013409;28;20230;-72
2022/04/10 00:27:46;;;;;;;1.60;1.50;;;19.90;48.90;;;;;;5011052;28;20200;-72
2022/04/10 00:30:15;;;;;;;1.30;1.20;;;19.90;48.80;;;;;;5010947;28;20204;-72
2022/04/10 00:32:41;;;;;;;1.42;1.20;;;19.90;48.80;;;;;;5010648;28;20192;-72
2022/04/10 00:35:09;;;;;;;1.10;1.10;;;19.90;48.70;;;;;;5012794;28;20244;-71
2022/04/10 00:37:36;;;;;;;1.20;1.10;;;19.90;48.80;;;;;;4998697;28;20195;-72
2022/04/10 00:40:04;;;;;;;1.60;1.23;;;19.90;48.80;;;;;;5014619;28;20204;-72
2022/04/10 00:42:47;;;;;;;1.45;1.17;;;19.90;48.90;;;;;;5015436;28;20675;-72
2022/04/10 00:45:14;;;;;;;1.20;1.10;;;19.90;48.80;;;;;;5002036;28;20707;-72
2022/04/10 00:47:42;;;;;;;1.98;1.17;;;19.90;48.80;;;;;;5022108;28;20183;-71
2022/04/10 00:50:08;;;;;;;1.58;1.48;;;19.90;48.80;;;;;;5015563;28;20204;-71
2022/04/10 00:52:36;;;;;;;2.03;1.40;;;19.90;48.80;;;;;;5014463;28;20186;-71
2022/04/10 00:55:02;;;;;;;1.20;1.10;;;19.90;48.80;;;;;;4997895;28;20655;-72
2022/04/10 00:57:28;;;;;;;1.20;1.10;;;19.90;48.80;;;;;;5014125;28;20583;-72
2022/04/10 00:59:54;;;;;;;1.30;1.20;;;19.90;48.80;;;;;;5015865;28;20208;-72
2022/04/10 01:02:20;;;;;;;1.48;1.35;;;19.90;48.90;;;;;;5019790;28;20578;-72
2022/04/10 01:04:46;;;;;;;1.75;1.50;;;19.90;48.80;;;;;;5013900;28;20188;-69
2022/04/10 01:07:14;;;;;;;1.30;1.20;;;19.90;48.80;;;;;;5037221;28;20184;-72
2022/04/10 01:09:44;;;;;;;1.30;1.20;;;19.90;48.80;;;;;;5014157;28;20204;-72
2022/04/10 01:12:11;;;;;;;1.33;1.23;;;19.90;48.80;;;;;;5016576;28;20184;-72
2022/04/10 01:14:39;;;;;;;1.20;1.10;;;19.90;48.60;;;;;;5000910;28;20188;-72
2022/04/10 01:17:10;;;;;;;1.30;1.20;;;19.90;48.70;;;;;;5014072;28;20191;-72
2022/04/10 01:19:39;;;;;;;1.13;1.10;;;19.90;48.70;;;;;;5015958;28;20208;-72
2022/04/10 01:22:07;;;;;;;1.27;1.15;;;19.90;48.60;;;;;;5014050;28;20218;-72
2022/04/10 01:24:43;;;;;;;1.52;1.20;;;19.90;48.70;;;;;;5014708;28;20191;-72
2022/04/10 01:27:12;;;;;;;1.30;1.20;;;19.90;48.70;;;;;;5013724;28;20279;-72
2022/04/10 01:29:38;;;;;;;1.15;1.05;;;19.90;48.70;;;;;;5013302;28;20204;-72
2022/04/10 01:32:05;;;;;;;1.38;1.27;;;19.90;48.70;;;;;;5014046;28;20202;-72
2022/04/10 01:34:32;;;;;;;1.27;1.17;;;19.90;48.80;;;;;;5013994;28;20238;-72
2022/04/10 01:37:00;;;;;;;1.20;1.10;;;19.90;48.70;;;;;;5016958;28;20180;-72
2022/04/10 01:39:26;;;;;;;1.42;1.13;;;19.90;48.70;;;;;;5013810;28;20208;-72
2022/04/10 01:41:52;;;;;;;1.30;1.20;;;19.90;48.80;;;;;;5013231;28;20196;-71
2022/04/10 01:44:18;;;;;;;1.10;1.10;;;19.90;48.70;;;;;;5013759;28;20191;-72
2022/04/10 01:46:45;;;;;;;2.00;1.55;;;19.90;48.70;;;;;;5012158;28;20200;-72
2022/04/10 01:49:11;;;;;;;1.50;1.20;;;19.90;48.80;;;;;;5029497;28;20204;-71
2022/04/10 01:51:37;;;;;;;2.28;1.50;;;19.90;48.70;;;;;;5013516;28;20203;-72
2022/04/10 01:54:03;;;;;;;1.45;1.35;;;19.90;48.60;;;;;;5018672;28;20186;-72
2022/04/10 01:56:29;;;;;;;1.73;1.33;;;19.90;48.70;;;;;;5013259;28;20187;-72
2022/04/10 01:58:55;;;;;;;1.30;1.20;;;19.90;48.60;;;;;;5017144;28;20223;-72
2022/04/10 02:01:23;;;;;;;1.83;1.48;;;19.90;48.60;;;;;;5012991;28;20211;-72
2022/04/10 02:03:52;;;;;;;1.00;1.00;;;19.90;48.70;;;;;;5014253;28;20663;-72
2022/04/10 02:06:19;;;;;;;1.40;1.30;;;19.90;48.60;;;;;;5013169;28;20226;-73
2022/04/10 02:08:48;;;;;;;1.20;1.10;;;19.90;48.60;;;;;;5013345;28;20258;-72
2022/04/10 02:11:21;;;;;;;1.40;1.30;;;19.90;48.70;;;;;;5035378;28;20242;-72
2022/04/10 02:13:50;;;;;;;1.15;1.00;;;19.90;48.60;;;;;;5012863;28;20579;-72
2022/04/10 02:16:18;;;;;;;1.08;1.05;;;19.90;48.70;;;;;;5013061;28;20191;-72
2022/04/10 02:18:46;;;;;;;1.40;1.17;;;19.90;48.70;;;;;;5014483;28;20265;-71
2022/04/10 02:21:13;;;;;;;1.15;1.13;;;19.90;48.70;;;;;;5012737;28;20180;-72
2022/04/10 02:23:40;;;;;;;1.20;1.10;;;19.90;48.60;;;;;;4996826;28;20188;-72
2022/04/10 02:26:10;;;;;;;0.90;0.90;;;19.90;48.60;;;;;;5012369;28;20180;-72
2022/04/10 02:28:36;;;;;;;1.38;1.17;;;19.90;48.60;;;;;;4996083;28;20277;-72
2022/04/10 02:31:02;;;;;;;1.48;1.10;;;19.90;48.60;;;;;;5018326;28;20176;-72
2022/04/10 02:33:32;;;;;;;1.27;1.05;;;19.90;48.60;;;;;;5012860;28;20191;-72
2022/04/10 02:35:57;;;;;;;1.52;1.13;;;19.90;48.60;;;;;;5012701;28;20295;-72
2022/04/10 02:38:23;;;;;;;1.25;1.10;;;19.90;48.60;;;;;;5012491;28;20216;-71
2022/04/10 02:40:49;;;;;;;1.30;1.20;;;19.90;48.60;;;;;;5016835;28;20238;-71
2022/04/10 02:43:15;;;;;;;1.92;1.58;;;19.90;48.60;;;;;;4996123;28;20212;-72
2022/04/10 02:45:44;;;;;;;1.33;1.23;;;19.90;48.60;;;;;;5020669;28;20191;-72
2022/04/10 02:48:10;;;;;;;1.10;1.10;;;19.90;48.60;;;;;;5019003;28;20314;-71
2022/04/10 02:50:39;;;;;;;1.35;1.25;;;19.90;48.50;;;;;;4996242;28;20180;-71
2022/04/10 02:53:06;;;;;;;1.25;1.15;;;19.90;48.50;;;;;;5012282;28;20263;-72
2022/04/10 02:55:34;;;;;;;1.30;1.20;;;19.90;48.60;;;;;;5012138;28;20659;-72
2022/04/10 02:58:00;;;;;;;2.50;1.30;;;19.90;48.60;;;;;;5011748;28;20234;-70
2022/04/10 03:00:27;;;;;;;0.82;0.82;;;19.90;48.50;;;;;;5063333;22;20757;-70
2022/04/10 03:02:53;;;;;;;1.20;1.10;;;20.00;48.70;;;;;;5031050;28;20214;-70
2022/04/10 03:05:20;;;;;;;1.00;1.00;;;19.90;48.60;;;;;;5031310;28;20554;-70
2022/04/10 03:07:46;;;;;;;1.60;1.20;;;19.90;48.50;;;;;;5013829;28;20189;-70
2022/04/10 03:10:12;;;;;;;1.30;1.20;;;19.90;48.60;;;;;;5014496;28;20203;-70
2022/04/10 03:12:39;;;;;;;1.02;0.98;;;19.90;49.20;;;;;;5047695;28;20187;-70
2022/04/10 03:15:06;;;;;;;1.48;1.10;;;19.90;48.50;;;;;;5038529;28;20558;-71
2022/04/10 03:17:33;;;;;;;1.10;1.00;;;19.90;48.50;;;;;;5030676;28;20188;-70
2022/04/10 03:20:03;;;;;;;1.30;1.20;;;19.90;48.50;;;;;;5030501;28;20203;-71
2022/04/10 03:22:28;;;;;;;1.40;1.30;;;19.90;48.50;;;;;;5030844;28;20230;-70
2022/04/10 03:24:54;;;;;;;1.20;1.10;;;19.90;48.50;;;;;;5030316;28;20183;-71
2022/04/10 03:27:20;;;;;;;1.40;1.23;;;19.90;48.50;;;;;;5030696;28;20187;-70
2022/04/10 03:29:47;;;;;;;1.83;1.38;;;19.90;48.50;;;;;;5025638;28;20222;-70
2022/04/10 03:32:12;;;;;;;1.00;0.90;;;19.90;48.50;;;;;;5030876;28;20191;-70
2022/04/10 03:34:39;;;;;;;1.52;1.15;;;19.90;48.50;;;;;;5026043;28;20245;-71
2022/04/10 03:37:06;;;;;;;1.48;1.13;;;19.90;48.50;;;;;;5047418;28;20187;-70
2022/04/10 03:39:33;;;;;;;1.33;1.20;;;19.90;48.50;;;;;;5047323;28;20207;-70
2022/04/10 03:41:59;;;;;;;1.38;1.27;;;19.90;48.50;;;;;;5029915;28;20258;-70
2022/04/10 03:44:25;;;;;;;1.00;1.00;;;19.90;48.40;;;;;;5030483;28;20195;-70
2022/04/10 03:46:51;;;;;;;1.10;0.93;;;19.90;48.50;;;;;;5029722;28;20555;-70
2022/04/10 03:49:17;;;;;;;1.00;0.90;;;19.90;48.40;;;;;;5047517;28;20195;-70
2022/04/10 03:51:43;;;;;;;1.45;1.00;;;19.90;48.50;;;;;;5044351;28;20240;-70
2022/04/10 03:54:10;;;;;;;1.30;0.98;;;19.90;48.50;;;;;;5030509;28;20229;-70
2022/04/10 03:56:36;;;;;;;1.30;1.20;;;19.90;48.50;;;;;;5030271;28;20186;-71
2022/04/10 03:59:02;;;;;;;1.00;0.88;;;19.90;48.40;;;;;;5029716;28;20215;-70
2022/04/10 04:01:28;;;;;;;1.20;1.10;;;19.90;48.50;;;;;;5029766;28;20218;-70
2022/04/10 04:03:55;;;;;;;0.90;0.90;;;19.90;48.40;;;;;;5030896;28;20187;-70
2022/04/10 04:06:21;;;;;;;1.13;1.02;;;19.90;48.40;;;;;;5046120;28;20196;-70
2022/04/10 04:08:46;;;;;;;1.15;1.10;;;19.90;48.40;;;;;;5038825;28;20203;-71
2022/04/10 04:11:12;;;;;;;1.45;1.15;;;19.90;48.40;;;;;;5033378;28;20187;-70
2022/04/10 04:13:40;;;;;;;1.33;1.20;;;19.90;48.40;;;;;;5017936;28;20183;-70
2022/04/10 04:16:08;;;;;;;1.40;1.30;;;19.90;49.00;;;;;;5034422;28;20325;-70
2022/04/10 04:18:35;;;;;;;1.20;1.10;;;19.90;48.40;;;;;;5030443;28;20642;-70
2022/04/10 04:21:02;;;;;;;1.30;1.20;;;19.90;48.40;;;;;;5017976;28;20210;-70
2022/04/10 04:23:31;;;;;;;1.42;1.20;;;19.90;48.40;;;;;;5033668;28;20183;-70
2022/04/10 04:25:58;;;;;;;1.65;1.33;;;19.90;48.40;;;;;;5017407;28;20175;-70
2022/04/10 04:28:24;;;;;;;1.35;1.20;;;19.90;48.30;;;;;;5034216;28;20190;-70
2022/04/10 04:30:50;;;;;;;1.55;1.33;;;19.90;48.40;;;;;;5018107;28;20258;-70
2022/04/10 04:33:16;;;;;;;1.17;1.10;;;19.90;48.20;;;;;;5033789;28;20183;-70
2022/04/10 04:35:43;;;;;;;1.30;1.20;;;19.90;48.20;;;;;;5030253;28;20184;-70
2022/04/10 04:38:09;;;;;;;1.20;1.10;;;19.90;48.30;;;;;;5033640;28;20202;-70
2022/04/10 04:40:36;;;;;;;1.60;1.00;;;19.90;48.20;;;;;;5033804;28;20203;-70
2022/04/10 04:43:02;;;;;;;1.00;0.90;;;19.90;48.20;;;;;;5025136;28;20211;-70
2022/04/10 04:45:30;;;;;;;0.90;0.90;;;19.90;48.30;;;;;;5050260;28;20194;-70
2022/04/10 04:48:16;;;;;;;1.52;1.10;;;19.90;48.30;;;;;;5034607;28;20188;-71
2022/04/10 04:50:45;;;;;;;0.93;0.93;;;19.90;48.30;;;;;;5033685;28;20199;-70
2022/04/10 04:53:16;;;;;;;1.30;1.20;;;19.90;48.30;;;;;;5045765;28;20197;-71
2022/04/10 04:55:42;;;;;;;1.30;1.20;;;19.90;48.30;;;;;;5033956;28;20180;-70
2022/04/10 04:58:08;;;;;;;1.08;1.05;;;19.90;48.20;;;;;;5033506;28;20233;-70
2022/04/10 05:00:37;;;;;;;1.75;1.60;;;19.90;48.20;;;;;;5030456;28;20249;-70
2022/04/10 05:03:03;;;;;;;1.65;1.30;;;19.90;48.20;;;;;;5033545;28;20215;-70
2022/04/10 05:05:30;;;;;;;1.52;1.42;;;19.90;48.20;;;;;;5033036;28;20187;-71
2022/04/10 05:08:02;;;;;;;1.55;1.45;;;19.90;48.20;;;;;;5042226;28;20198;-70
2022/04/10 05:10:29;;;;;;;1.42;1.33;;;19.90;48.10;;;;;;5032840;28;20217;-70
2022/04/10 05:12:55;;;;;;;1.77;1.67;;;19.90;48.10;;;;;;5033230;28;20274;-70
2022/04/10 05:15:24;;;;;;;1.40;1.30;;;19.80;48.00;;;;;;5033382;28;20732;-70
2022/04/10 05:17:51;;;;;;;1.30;1.20;;;19.90;48.10;;;;;;5031226;28;20226;-70
2022/04/10 05:20:18;;;;;;;1.45;1.30;;;19.80;48.20;;;;;;5032697;28;20298;-70
2022/04/10 05:22:54;;;;;;;1.42;1.15;;;19.80;48.10;;;;;;5044755;28;20222;-70
2022/04/10 05:25:20;;;;;;;1.10;1.10;;;19.80;48.10;;;;;;5031716;28;20226;-70
2022/04/10 05:27:49;;;;;;;1.23;0.98;;;19.80;48.10;;;;;;5050501;28;20179;-71
2022/04/10 05:30:16;;;;;;;1.88;1.20;;;19.80;48.10;;;;;;5030670;28;20650;-70
2022/04/10 05:32:45;;;;;;;1.40;1.23;;;19.80;48.10;;;;;;5033297;28;20183;-70
2022/04/10 05:35:13;;;;;;;1.33;1.20;;;19.80;48.10;;;;;;5017445;28;20274;-70
2022/04/10 05:37:39;;;;;;;1.77;1.30;;;19.80;48.10;;;;;;5016999;28;20194;-70
2022/04/10 05:40:06;;;;;;;1.73;1.27;;;19.90;48.20;;;;;;5034605;28;20206;-70
2022/04/10 05:42:46;;;;;;;1.30;1.20;;;19.80;48.10;;;;;;5029453;28;20302;-70
2022/04/10 05:45:14;;;;;;;1.70;1.60;;;19.90;48.10;;;;;;5042796;28;20266;-70
2022/04/10 05:47:45;;;;;;;1.58;1.48;;;19.90;48.10;;;;;;5049608;28;20187;-70
2022/04/10 05:50:14;;;;;;;1.55;1.45;;;19.90;48.00;;;;;;5033678;28;20200;-70
2022/04/10 05:52:46;;;;;;;2.50;1.38;;;19.90;48.00;;;;;;5045876;28;20190;-70
2022/04/10 05:55:15;;;;;;;1.55;1.45;;;19.90;48.00;;;;;;5027227;28;20195;-69
2022/04/10 05:57:45;;;;;;;1.00;0.82;;;19.90;48.00;;;;;;5029763;28;20272;-70
2022/04/10 06:00:15;;;;;;;2.20;1.33;;;19.90;48.00;;;;;;5056971;28;20218;-70
2022/04/10 06:02:42;;;;;;;1.30;1.00;;;20.00;48.10;;;;;;5045818;28;20227;-70
2022/04/10 06:05:09;;;;;;;1.60;1.50;;;20.00;48.10;;;;;;5029631;28;20179;-70
2022/04/10 06:07:42;;;;;;;1.23;1.13;;;20.00;48.10;;;;;;5033895;28;20180;-70
2022/04/10 06:10:09;;;;;;;1.10;1.00;;;20.00;48.10;;;;;;5013129;28;20691;-70
2022/04/10 06:12:35;;;;;;;1.38;1.27;;;20.00;48.10;;;;;;5026098;28;20191;-70
2022/04/10 06:15:01;;;;;;;1.35;1.25;;;20.00;48.10;;;;;;5019011;28;20233;-70
2022/04/10 06:17:30;;;;;;;1.20;1.10;;;20.00;48.10;;;;;;5031363;28;20666;-69
2022/04/10 06:19:58;;;;;;;2.47;1.35;;;20.00;48.10;;;;;;5049270;28;20214;-70
2022/04/10 06:22:24;;;;;;;1.30;1.17;;;20.00;48.10;;;;;;5033573;28;20293;-70
2022/04/10 06:24:52;;;;;;;1.63;1.27;;;20.10;48.20;;;;;;5031662;28;20185;-70
2022/04/10 06:27:19;;;;;;;2.13;1.50;;;20.00;48.10;;;;;;5038410;28;20179;-70
2022/04/10 06:29:46;;;;;;;1.80;1.48;;;20.10;48.10;;;;;;5015395;28;20223;-70
2022/04/10 06:32:13;;;;;;;1.38;1.27;;;20.00;48.10;;;;;;5010790;28;20216;-70
2022/04/10 06:34:42;;;;;;;1.48;1.10;;;20.10;48.20;;;;;;5046456;28;20262;-69
2022/04/10 06:37:10;;;;;;;1.40;1.30;;;20.10;48.20;;;;;;5048776;28;20187;-69
2022/04/10 06:39:37;;;;;;;1.50;1.40;;;20.10;48.20;;;;;;5035744;28;20353;-70
2022/04/10 06:42:07;;;;;;;1.63;1.08;;;20.00;48.10;;;;;;5032409;28;20203;-69
2022/04/10 06:44:49;;;;;;;0.98;0.90;;;20.00;48.10;;;;;;5029530;28;20264;-69
2022/04/10 06:47:21;;;;;;;1.10;1.00;;;20.00;48.10;;;;;;5018595;28;20240;-70
2022/04/10 06:49:49;;;;;;;1.13;1.13;;;20.10;48.20;;;;;;5040094;28;20203;-70
2022/04/10 06:52:15;;;;;;;1.58;1.30;;;20.10;48.20;;;;;;5028824;28;20187;-70
2022/04/10 06:54:41;;;;;;;1.83;1.20;;;20.10;48.20;;;;;;5030449;28;20195;-69
2022/04/10 06:57:09;;;;;;;1.33;1.02;;;20.10;48.10;;;;;;5031729;28;20179;-70
2022/04/10 06:59:35;;;;;;;1.42;1.33;;;20.20;48.10;;;;;;5027075;28;20220;-69
2022/04/10 07:02:06;;;;;;;1.48;1.17;;;20.20;48.10;;;;;;5048342;28;20257;-68
2022/04/10 07:04:33;;;;;;;1.38;1.27;;;20.20;48.00;;;;;;5034263;28;20274;-70
2022/04/10 07:07:03;;;;;;;1.25;1.13;;;20.30;48.00;;;;;;5023573;28;20171;-70
2022/04/10 07:09:29;;;;;;;1.25;1.15;;;20.30;48.00;;;;;;5015392;28;20215;-69
2022/04/10 07:11:55;;;;;;;1.90;1.23;;;20.30;48.00;;;;;;5031429;28;20191;-69
2022/04/10 07:14:33;;;;;;;1.98;1.33;;;20.30;48.00;;;;;;5035359;28;20214;-69
2022/04/10 07:17:00;;;;;;;1.20;1.10;;;20.40;48.00;;;;;;5029950;28;20241;-70
2022/04/10 07:19:25;;;;;;;1.48;1.38;;;20.40;48.00;;;;;;5031561;28;20202;-69
2022/04/10 07:24:39;;;;;;;1.90;1.25;;;20.40;47.90;;;;;;5031555;28;20179;-69
2022/04/10 07:27:06;;;;;;;1.27;1.17;;;20.40;48.00;;;;;;5031037;28;20179;-70
2022/04/10 07:29:42;;;;;;;1.20;1.10;;;20.40;48.00;;;;;;5047930;28;20202;-69
2022/04/10 07:32:10;;;;;;;1.33;0.90;;;20.40;48.00;;;;;;5029108;28;20198;-69
2022/04/10 07:34:43;;;;;;;1.33;1.23;;;20.50;48.00;;;;;;5045764;28;20183;-69
2022/04/10 07:37:24;;;;;;;0.82;0.82;;;20.50;48.00;;;;;;5025484;28;20654;-70
2022/04/10 07:39:58;;;;;;;1.27;1.15;;;20.50;48.00;;;;;;5034274;28;20207;-69
2022/04/10 07:42:29;;;;;;;1.05;0.98;;;20.50;48.10;;;;;;5047455;28;20213;-70
2022/04/10 07:44:59;;;;;;;1.58;0.80;;;20.50;48.00;;;;;;5057665;28;20187;-70
2022/04/10 07:47:31;;;;;;;1.20;1.10;;;20.50;47.90;;;;;;5026013;28;20716;-69
2022/04/10 07:49:58;;;;;;;2.10;1.20;;;20.60;48.00;;;;;;5028549;28;20227;-69
2022/04/10 07:52:24;;;;;;;1.30;1.10;;;20.60;47.90;;;;;;5047182;28;20190;-69
2022/04/10 07:54:56;;;;;;;1.20;1.10;;;20.60;48.00;;;;;;5028349;28;20191;-67
2022/04/10 07:57:23;;;;;;;0.90;0.90;;;20.60;48.00;;;;;;5031073;28;20241;-69
2022/04/10 07:59:49;;;;;;;2.38;1.10;;;20.60;48.60;;;;;;5047226;28;20225;-69
2022/04/10 08:02:27;;;;;;;1.30;1.15;;;20.60;48.00;;;;;;5032429;28;20747;-69
2022/04/10 08:04:53;;;;;;;1.42;1.00;;;20.60;48.10;;;;;;5030707;28;20214;-70
2022/04/10 08:07:43;;;;;;;1.70;1.00;;;20.60;48.00;;;;;;5031117;28;20179;-69
2022/04/10 08:10:10;;;;;;;1.27;1.02;;;20.60;48.10;;;;;;5031785;28;20207;-70
2022/04/10 08:12:36;;;;;;;1.20;1.10;;;20.70;48.10;;;;;;5029571;28;20198;-70
2022/04/10 08:15:03;;;;;;;0.95;0.80;;;20.70;48.20;;;;;;5031966;28;20190;-70
2022/04/10 08:17:29;;;;;;;1.00;1.00;;;20.70;48.10;;;;;;5034263;28;20195;-70
2022/04/10 08:19:55;;;;;;;0.80;0.80;;;20.70;48.10;;;;;;5014193;28;20217;-70
2022/04/10 08:22:26;;;;;;;1.20;1.10;;;20.70;48.10;;;;;;5047317;28;20211;-70
2022/04/10 08:24:53;;;;;;;1.00;0.90;;;20.70;48.10;;;;;;5030247;28;20191;-69
2022/04/10 08:27:20;;;;;;;1.30;1.10;;;20.70;48.20;;;;;;5010807;28;20176;-70
2022/04/10 08:29:46;;;;;;;1.15;0.95;;;20.60;48.10;;;;;;5030110;28;20268;-69
2022/04/10 08:32:12;;;;;;;1.40;0.93;;;20.70;48.20;;;;;;5037514;28;20251;-70
2022/04/10 08:34:38;;;;;;;1.35;1.02;;;20.60;47.90;;;;;;5022895;28;20291;-69
2022/04/10 08:37:06;;;;;;;1.35;1.10;;;20.70;47.90;;;;;;5022652;28;20183;-69
2022/04/10 08:39:33;;;;;;;1.00;0.88;;;20.70;47.80;;;;;;5025066;28;20274;-69
2022/04/10 08:42:08;;;;;;;0.95;0.80;;;20.70;47.80;;;;;;5046763;28;20234;-69
2022/04/10 08:44:35;;;;;;;2.05;1.00;;;20.70;47.70;;;;;;5039586;28;20184;-70
2022/04/10 08:47:02;;;;;;;1.05;1.00;;;20.70;47.70;;;;;;5047077;28;20183;-69
2022/04/10 08:49:30;;;;;;;1.40;0.90;;;20.70;47.80;;;;;;5042812;28;20207;-70
2022/04/10 08:51:58;;;;;;;1.92;0.90;;;20.70;47.80;;;;;;5029209;28;20321;-68
2022/04/10 08:54:25;;;;;;;0.98;0.98;;;20.70;47.80;;;;;;5028765;28;20218;-70
2022/04/10 08:56:51;;;;;;;1.20;1.10;;;20.70;47.90;;;;;;5032910;28;20192;-70
2022/04/10 08:59:18;;;;;;;1.13;1.02;;;20.70;47.90;;;;;;5067666;22;21164;-70
2022/04/10 09:01:45;;;;;;;2.25;1.00;;;20.70;47.90;;;;;;5018419;28;20234;-70
2022/04/10 09:04:12;;;;;;;1.13;1.00;;;20.70;47.80;;;;;;4997853;28;20191;-70
2022/04/10 09:06:41;;;;;;;1.10;1.00;;;20.80;47.90;;;;;;4995087;28;20212;-70
2022/04/10 09:09:16;;;;;;;0.90;0.90;;;20.70;47.80;;;;;;5012684;28;20241;-70
2022/04/10 09:11:43;;;;;;;1.42;1.00;;;20.70;47.80;;;;;;4993257;28;20185;-70
2022/04/10 09:14:09;;;;;;;1.10;1.00;;;20.70;47.80;;;;;;4994928;28;20176;-70
2022/04/10 09:16:36;;;;;;;0.82;0.82;;;20.70;47.80;;;;;;5010815;28;20225;-70
2022/04/10 09:19:10;;;;;;;1.80;1.00;;;20.70;47.80;;;;;;4995462;28;20193;-70
2022/04/10 09:21:39;;;;;;;1.65;1.00;;;20.80;47.80;;;;;;4997764;28;20270;-70
2022/04/10 09:24:11;;;;;;;2.10;0.90;;;20.70;47.80;;;;;;5010943;28;20189;-70
2022/04/10 09:26:46;;;;;;;1.25;0.80;;;20.80;47.90;;;;;;5020455;28;20180;-70
2022/04/10 09:29:14;;;;;;;1.00;0.90;;;20.70;47.80;;;;;;4996784;28;20272;-70
2022/04/10 09:31:41;;;;;;;1.25;0.88;;;20.80;48.00;;;;;;4990991;28;20189;-70
2022/04/10 09:34:09;;;;;;;1.00;0.82;;;20.70;48.00;;;;;;4990965;28;20213;-68
2022/04/10 09:36:38;;;;;;;1.25;0.93;;;20.70;48.00;;;;;;5009542;28;20189;-70
2022/04/10 09:39:11;;;;;;;1.13;1.00;;;20.70;48.00;;;;;;4974700;28;20205;-70
2022/04/10 09:41:39;;;;;;;1.20;0.95;;;20.70;48.00;;;;;;5000229;28;20216;-69
2022/04/10 09:44:22;;;;;;;0.95;0.90;;;20.70;47.90;;;;;;5010532;28;20184;-70
2022/04/10 09:47:07;;;;;;;1.42;0.85;;;20.70;47.90;;;;;;4994880;28;20657;-70
2022/04/10 09:49:42;;;;;;;2.15;0.90;;;20.70;47.80;;;;;;4977844;28;20205;-69
2022/04/10 09:52:17;;;;;;;0.93;0.80;;;20.70;47.80;;;;;;4990433;28;20185;-70
2022/04/10 09:54:50;;;;;;;0.88;0.70;;;20.70;47.80;;;;;;4983585;28;20226;-69
2022/04/10 09:57:18;;;;;;;0.80;0.80;;;20.70;47.80;;;;;;4994785;28;20189;-69
2022/04/10 09:59:46;;;;;;;2.10;0.95;;;20.70;47.90;;;;;;4977245;28;20279;-69
2022/04/10 10:02:15;;;;;;;2.35;1.00;;;20.70;47.80;;;;;;4993706;28;20695;-70
2022/04/10 10:04:43;;;;;;;1.30;1.10;;;20.70;47.90;;;;;;4993470;28;20177;-70
2022/04/10 10:07:18;;;;;;;0.95;0.90;;;20.70;47.90;;;;;;4992317;28;20622;-70
2022/04/10 10:09:48;;;;;;;1.17;0.95;;;20.70;47.80;;;;;;5012068;28;20354;-69
2022/04/10 10:12:16;;;;;;;1.77;1.15;;;20.70;47.90;;;;;;4990193;28;20181;-70
2022/04/10 10:14:42;;;;;;;0.80;0.80;;;20.70;47.80;;;;;;4974007;28;20268;-70
2022/04/10 10:17:09;;;;;;;1.60;1.10;;;20.70;47.80;;;;;;4986425;28;20199;-70
2022/04/10 10:19:39;;;;;;;2.58;0.80;;;20.70;47.80;;;;;;4993092;28;20212;-70
2022/04/10 10:22:12;;;;;;;2.45;1.00;;;20.70;48.00;;;;;;4992958;28;20225;-69
2022/04/10 10:25:16;;;;;;;1.80;0.80;;;20.70;48.00;;;;;;4993273;28;20264;-70
2022/04/10 10:28:08;;;;;;;0.88;0.70;;;20.70;47.80;;;;;;4952762;28;20194;-70
2022/04/10 10:31:08;;;;;;;1.67;1.00;;;20.70;48.00;;;;;;4953211;29;20586;-69
2022/04/10 10:33:37;;;;;;;1.85;0.73;;;20.70;48.00;;;;;;4989188;28;20289;-69
2022/04/10 10:36:09;;;;;;;1.65;1.05;;;20.70;47.90;;;;;;4993616;28;20616;-69
2022/04/10 10:38:35;;;;;;;1.90;1.10;;;20.70;47.80;;;;;;4976409;28;20192;-69
2022/04/10 10:41:32;;;;;;;1.25;1.00;;;20.60;47.80;;;;;;4992976;28;20216;-68
2022/04/10 10:44:15;;;;;;;1.17;1.00;;;20.70;47.90;;;;;;4992591;28;20189;-70
2022/04/10 10:46:57;;;;;;;1.15;0.90;;;20.70;48.00;;;;;;4992984;28;20181;-70
2022/04/10 10:49:23;;;;;;;1.25;0.90;;;20.60;47.80;;;;;;4975153;28;20217;-69
2022/04/10 10:51:54;;;;;;;0.90;0.80;;;20.70;47.90;;;;;;4990758;28;20193;-69
2022/04/10 10:54:34;;;;;;;1.48;0.93;;;20.70;48.00;;;;;;4990993;28;20189;-69
2022/04/10 10:57:25;;;;;;;1.50;0.90;;;20.70;47.90;;;;;;5010025;28;20228;-69
2022/04/10 11:00:03;;;;;;;1.17;0.90;;;20.70;47.80;;;;;;4990922;28;20223;-70
2022/04/10 11:02:36;;;;;;;0.90;0.90;;;20.70;47.80;;;;;;4990093;28;20208;-71
2022/04/10 11:05:29;;;;;;;1.25;0.80;;;20.70;47.80;;;;;;4981904;28;20199;-70
2022/04/10 11:08:09;;;;;;;0.80;0.80;;;20.70;47.90;;;;;;4972952;28;20192;-70
2022/04/10 11:10:58;;;;;;;1.45;0.90;;;20.70;47.80;;;;;;4991115;28;20212;-70
2022/04/10 11:13:37;;;;;;;1.40;0.95;;;20.70;47.80;;;;;;4990118;28;20193;-70
2022/04/10 11:16:10;;;;;;;0.90;0.85;;;20.70;47.90;;;;;;4997925;28;20224;-70
2022/04/10 11:18:49;;;;;;;0.93;0.93;;;20.70;47.80;;;;;;4988690;28;20284;-71
2022/04/10 11:21:21;;;;;;;1.10;1.00;;;20.70;48.00;;;;;;5005133;28;20218;-70
2022/04/10 11:23:49;;;;;;;0.93;0.85;;;20.70;47.90;;;;;;4990537;28;20185;-69
2022/04/10 11:26:19;;;;;;;1.55;1.08;;;20.70;48.00;;;;;;4982703;28;20211;-69
2022/04/10 11:28:57;;;;;;;1.13;0.95;;;20.70;48.00;;;;;;4973214;28;20193;-70
2022/04/10 11:31:35;;;;;;;1.02;0.95;;;20.70;48.40;;;;;;4986592;28;20196;-70
2022/04/10 11:34:19;;;;;;;1.05;0.98;;;20.70;48.00;;;;;;4975438;28;20200;-70
2022/04/10 11:36:48;;;;;;;1.50;0.93;;;20.70;48.00;;;;;;4988904;28;20237;-70
2022/04/10 11:39:16;;;;;;;1.02;0.93;;;20.70;48.00;;;;;;4983188;28;20265;-69
2022/04/10 11:41:43;;;;;;;0.77;0.77;;;20.70;48.00;;;;;;4973191;28;20279;-70
2022/04/10 11:44:09;;;;;;;1.67;1.10;;;20.70;48.00;;;;;;4965776;28;20177;-70
2022/04/10 11:46:38;;;;;;;0.77;0.77;;;20.70;48.10;;;;;;4972311;28;20186;-71
2022/04/10 11:49:04;;;;;;;0.95;0.90;;;20.70;47.90;;;;;;4991325;28;20231;-70
2022/04/10 11:51:30;;;;;;;0.90;0.90;;;20.70;48.00;;;;;;4991185;28;20208;-70
2022/04/10 11:53:59;;;;;;;1.10;1.02;;;20.70;47.90;;;;;;4991606;28;20240;-70
2022/04/10 11:56:25;;;;;;;1.00;0.90;;;20.70;47.90;;;;;;4975090;28;20190;-70
2022/04/10 11:58:51;;;;;;;1.00;0.90;;;20.70;48.00;;;;;;4990492;28;20189;-69
2022/04/10 12:01:19;;;;;;;1.52;0.90;;;20.70;48.00;;;;;;4991031;28;20227;-70
2022/04/10 12:03:49;;;;;;;0.98;0.88;;;20.70;48.10;;;;;;4990744;28;20227;-69
2022/04/10 12:06:20;;;;;;;0.70;0.70;;;20.70;48.10;;;;;;4991164;28;20185;-70
2022/04/10 12:08:48;;;;;;;0.82;0.82;;;20.70;48.30;;;;;;4991069;28;20188;-70
2022/04/10 12:11:14;;;;;;;2.03;1.02;;;20.70;48.20;;;;;;4977182;28;20212;-70
2022/04/10 12:13:40;;;;;;;1.17;0.90;;;20.70;48.10;;;;;;4990366;28;20201;-70
2022/04/10 12:16:16;;;;;;;0.85;0.85;;;20.70;48.20;;;;;;4990752;28;20185;-70
2022/04/10 12:18:53;;;;;;;1.05;0.90;;;20.70;48.10;;;;;;4990985;28;20280;-70
2022/04/10 12:21:22;;;;;;;1.65;0.90;;;20.70;48.10;;;;;;4991096;28;20256;-70
2022/04/10 12:24:04;;;;;;;1.42;0.75;;;20.70;48.20;;;;;;4988729;28;20197;-71
2022/04/10 12:26:33;;;;;;;1.48;0.98;;;20.70;48.10;;;;;;4990862;28;20238;-71
2022/04/10 12:28:59;;;;;;;1.30;0.82;;;20.70;48.10;;;;;;4991991;28;20189;-69
2022/04/10 12:31:26;;;;;;;0.80;0.80;;;20.70;48.10;;;;;;4992903;28;20192;-71
2022/04/10 12:33:53;;;;;;;1.20;1.02;;;20.70;48.20;;;;;;5011198;28;20219;-68
2022/04/10 12:36:21;;;;;;;1.40;1.02;;;20.60;48.10;;;;;;4994137;28;20192;-70
2022/04/10 12:38:54;;;;;;;2.13;1.13;;;20.70;48.20;;;;;;4994343;28;20656;-71
2022/04/10 12:41:29;;;;;;;1.08;1.00;;;20.70;48.20;;;;;;4978455;28;20244;-71
2022/04/10 12:44:03;;;;;;;1.35;1.00;;;20.70;48.10;;;;;;5001786;28;20187;-71
2022/04/10 12:46:37;;;;;;;1.02;0.93;;;20.70;48.20;;;;;;4995092;28;20188;-71
2022/04/10 12:49:14;;;;;;;0.90;0.80;;;20.60;48.00;;;;;;4988148;28;20185;-70
2022/04/10 12:52:03;;;;;;;1.73;0.80;;;20.70;48.10;;;;;;4994580;28;20184;-70
2022/04/10 12:54:39;;;;;;;0.85;0.85;;;20.60;48.00;;;;;;4986702;28;20174;-72
2022/04/10 12:57:08;;;;;;;1.13;1.00;;;20.70;48.10;;;;;;4982765;28;20189;-70
2022/04/10 12:59:49;;;;;;;1.17;1.00;;;20.70;48.10;;;;;;5001405;28;20716;-70
2022/04/10 13:02:27;;;;;;;1.23;0.70;;;20.70;48.60;;;;;;5002151;28;20210;-70